Time;durP1;ratioP1;P1;durP2;ratioP2;P2;SDS_P1;SDS_P2;PMS_P1;PMS_P2;Temp;Humidity;BMP_temperature;BMP_pressure;BME280_temperature;BME280_humidity;BME280_pressure;Samples;Min_cycle;Max_cycle;Signal;HPM_P1;HPM_P2
2023/01/28 00:00:33;;;;;;;5.03;2.60;;;-1.70;99.90;;;;;;5005752;28;20699;-79
2023/01/28 00:02:59;;;;;;;5.03;2.75;;;-1.30;99.90;;;;;;5010655;28;20389;-80
2023/01/28 00:05:25;;;;;;;7.00;3.25;;;-1.40;99.90;;;;;;5010930;28;20391;-81
2023/01/28 00:07:51;;;;;;;4.97;2.50;;;-1.40;99.90;;;;;;5009006;28;20454;-79
2023/01/28 00:10:17;;;;;;;4.75;2.85;;;-1.30;99.90;;;;;;5009081;28;20403;-80
2023/01/28 00:12:43;;;;;;;5.72;2.97;;;-0.70;99.90;;;;;;5012985;28;20439;-79
2023/01/28 00:15:10;;;;;;;6.07;2.92;;;-1.40;99.90;;;;;;5021049;28;20462;-79
2023/01/28 00:17:36;;;;;;;5.50;3.00;;;-1.30;99.90;;;;;;5013908;28;20387;-81
2023/01/28 00:20:04;;;;;;;5.90;3.00;;;-0.70;99.90;;;;;;5008254;28;20423;-81
2023/01/28 00:22:30;;;;;;;5.17;3.00;;;-0.90;99.90;;;;;;5007486;28;20445;-81
2023/01/28 00:24:57;;;;;;;8.48;3.58;;;-0.90;99.90;;;;;;5008199;28;20842;-81
2023/01/28 00:27:23;;;;;;;6.07;3.60;;;-1.10;99.90;;;;;;5006197;28;20770;-80
2023/01/28 00:29:49;;;;;;;6.75;3.67;;;-0.80;99.90;;;;;;5007538;28;20379;-81
2023/01/28 00:32:15;;;;;;;7.07;3.85;;;-0.60;99.90;;;;;;5008150;28;20421;-81
2023/01/28 00:34:40;;;;;;;6.80;3.87;;;-0.80;99.90;;;;;;5009490;28;20738;-79
2023/01/28 00:37:06;;;;;;;7.30;4.03;;;-0.80;99.90;;;;;;5008581;28;20390;-80
2023/01/28 00:39:35;;;;;;;8.05;3.65;;;-0.40;99.90;;;;;;5009175;28;20453;-79
2023/01/28 00:42:00;;;;;;;5.90;3.30;;;-0.10;99.90;;;;;;5007759;28;20384;-80
2023/01/28 00:44:26;;;;;;;7.53;3.55;;;-0.50;99.90;;;;;;5009155;28;20437;-79
2023/01/28 00:46:52;;;;;;;5.55;3.60;;;-0.10;99.90;;;;;;5008416;28;20881;-79
2023/01/28 00:49:17;;;;;;;6.70;4.03;;;-0.40;99.90;;;;;;5008331;28;20873;-79
2023/01/28 00:51:43;;;;;;;9.77;4.05;;;-0.20;99.90;;;;;;5008584;28;20449;-79
2023/01/28 00:54:11;;;;;;;6.53;3.70;;;0.00;99.90;;;;;;5008874;28;20475;-79
2023/01/28 00:56:37;;;;;;;6.43;3.30;;;0.00;99.90;;;;;;5008728;28;21004;-79
2023/01/28 00:59:03;;;;;;;6.53;3.67;;;0.10;99.90;;;;;;5008600;28;20386;-79
2023/01/28 01:01:29;;;;;;;5.38;3.47;;;0.10;99.90;;;;;;5007160;28;20408;-81
2023/01/28 01:06:24;;;;;;;5.18;3.53;;;0.20;99.90;;;;;;4966475;28;20462;-80
2023/01/28 01:08:50;;;;;;;6.40;3.63;;;0.30;99.90;;;;;;4961008;28;20460;-81
2023/01/28 01:11:16;;;;;;;5.35;3.78;;;0.20;99.90;;;;;;4965735;28;20772;-79
2023/01/28 01:13:42;;;;;;;5.30;3.40;;;0.40;99.90;;;;;;4970552;28;20390;-80
2023/01/28 01:16:15;;;;;;;6.90;4.28;;;0.20;99.90;;;;;;4964051;28;20788;-81
2023/01/28 01:18:42;;;;;;;4.70;3.50;;;0.30;99.90;;;;;;4966469;28;20787;-82
2023/01/28 01:21:13;;;;;;;5.43;3.60;;;0.50;99.90;;;;;;4968666;28;20433;-81
2023/01/28 01:23:39;;;;;;;8.15;4.03;;;0.60;99.90;;;;;;4968587;28;20417;-80
2023/01/28 01:26:05;;;;;;;6.43;3.58;;;0.00;99.90;;;;;;4965599;28;20402;-80
2023/01/28 01:28:35;;;;;;;7.30;4.00;;;0.10;99.90;;;;;;4971794;28;20399;-80
2023/01/28 01:31:03;;;;;;;5.73;3.67;;;0.20;99.90;;;;;;4974088;28;20474;-81
2023/01/28 01:33:29;;;;;;;6.20;3.55;;;0.40;99.90;;;;;;4972360;28;20383;-80
2023/01/28 01:35:56;;;;;;;5.25;4.00;;;0.30;99.90;;;;;;4987450;28;20422;-81
2023/01/28 01:38:22;;;;;;;5.87;3.63;;;0.30;99.90;;;;;;4972429;28;20465;-80
2023/01/28 01:40:48;;;;;;;6.97;3.70;;;0.40;99.90;;;;;;4971479;28;20506;-81
2023/01/28 01:43:21;;;;;;;5.60;3.10;;;0.60;99.90;;;;;;4970213;28;20438;-79
2023/01/28 01:45:59;;;;;;;6.27;3.87;;;0.80;99.90;;;;;;4972430;28;20578;-81
2023/01/28 01:48:33;;;;;;;4.35;3.10;;;0.50;99.90;;;;;;4970005;28;20398;-80
2023/01/28 01:51:14;;;;;;;5.60;3.65;;;0.60;99.90;;;;;;4971750;28;20422;-80
2023/01/28 01:53:47;;;;;;;5.80;3.53;;;0.70;99.90;;;;;;4969924;28;20437;-80
2023/01/28 01:56:16;;;;;;;5.72;3.92;;;0.80;99.90;;;;;;4969535;28;20446;-80
2023/01/28 01:58:45;;;;;;;6.18;3.85;;;0.60;99.90;;;;;;4962107;28;20465;-79
2023/01/28 02:01:12;;;;;;;6.47;3.90;;;0.70;99.90;;;;;;4965546;28;20406;-82
2023/01/28 02:04:04;;;;;;;4.47;3.47;;;0.70;99.90;;;;;;4951972;28;20396;-81
2023/01/28 02:06:31;;;;;;;6.53;3.80;;;0.70;99.90;;;;;;4966396;28;20440;-80
2023/01/28 02:08:57;;;;;;;5.57;3.60;;;1.10;99.90;;;;;;4970357;28;20461;-80
2023/01/28 02:11:28;;;;;;;6.43;3.88;;;0.90;99.90;;;;;;4969066;28;20410;-80
2023/01/28 02:13:56;;;;;;;5.63;3.45;;;0.60;99.90;;;;;;4972817;28;20405;-80
2023/01/28 02:16:23;;;;;;;5.90;3.70;;;1.40;99.90;;;;;;4968169;28;20573;-81
2023/01/28 02:18:49;;;;;;;5.35;3.67;;;0.90;99.90;;;;;;4973527;28;20395;-80
2023/01/28 02:21:33;;;;;;;5.50;4.10;;;1.10;99.90;;;;;;4971043;28;20773;-81
2023/01/28 02:24:14;;;;;;;6.82;4.18;;;0.80;99.90;;;;;;4973380;28;20494;-82
2023/01/28 02:26:51;;;;;;;5.95;3.88;;;0.80;99.90;;;;;;4973128;28;20411;-79
2023/01/28 02:29:26;;;;;;;5.93;4.20;;;0.60;99.90;;;;;;4987208;28;20433;-79
2023/01/28 02:32:19;;;;;;;6.37;4.30;;;0.60;99.90;;;;;;4984665;28;20437;-80
2023/01/28 02:34:50;;;;;;;7.80;4.20;;;0.70;99.90;;;;;;4971181;28;20403;-80
2023/01/28 02:37:38;;;;;;;7.00;4.43;;;0.70;99.90;;;;;;4967793;28;20865;-82
2023/01/28 02:40:19;;;;;;;6.60;4.47;;;0.30;99.90;;;;;;4970338;28;20872;-82
2023/01/28 02:42:45;;;;;;;5.90;4.28;;;0.60;99.90;;;;;;4971307;28;20383;-81
2023/01/28 02:45:24;;;;;;;6.68;4.38;;;0.60;99.90;;;;;;4971455;28;20727;-79
2023/01/28 02:47:57;;;;;;;5.72;4.40;;;0.70;99.90;;;;;;4983889;28;20421;-81
2023/01/28 02:50:28;;;;;;;7.47;4.63;;;0.70;99.90;;;;;;4970673;28;20398;-81
2023/01/28 02:56:05;;;;;;;5.95;4.63;;;0.80;99.90;;;;;;4971579;28;20505;-80
2023/01/28 02:58:38;;;;;;;6.05;4.28;;;0.70;99.90;;;;;;4970564;28;20378;-82
2023/01/28 03:01:09;;;;;;;6.38;4.22;;;0.60;99.90;;;;;;4971454;28;20417;-80
2023/01/28 03:03:59;;;;;;;6.40;4.60;;;0.80;99.90;;;;;;4971742;28;20383;-80
2023/01/28 03:06:33;;;;;;;7.57;4.93;;;0.70;99.90;;;;;;4950530;29;20403;-80
2023/01/28 03:09:21;;;;;;;7.28;5.03;;;0.70;99.90;;;;;;4950514;29;20937;-80
2023/01/28 03:37:20;;;;;;;5.00;3.55;;;0.90;99.90;;;;;;4970315;28;20446;-80
2023/01/28 03:39:46;;;;;;;6.18;4.25;;;0.90;99.90;;;;;;4967187;28;20413;-80
2023/01/28 03:42:14;;;;;;;7.03;4.38;;;0.80;99.90;;;;;;4967558;28;20916;-81
2023/01/28 03:44:52;;;;;;;7.32;4.82;;;1.10;99.90;;;;;;4970602;28;20433;-80
2023/01/28 03:47:23;;;;;;;5.63;3.92;;;0.70;99.90;;;;;;4968702;28;20407;-81
2023/01/28 03:49:52;;;;;;;5.20;3.70;;;0.70;99.90;;;;;;4970003;28;20421;-80
2023/01/28 03:52:20;;;;;;;5.45;3.97;;;0.90;99.90;;;;;;4966914;28;20524;-80
2023/01/28 03:54:47;;;;;;;5.32;3.83;;;1.30;99.90;;;;;;4969463;28;20402;-81
2023/01/28 03:57:18;;;;;;;5.65;3.97;;;0.90;99.90;;;;;;4968134;28;20526;-80
2023/01/28 03:59:44;;;;;;;5.78;4.10;;;0.80;99.90;;;;;;4969373;28;20405;-81
2023/01/28 04:02:11;;;;;;;4.73;3.70;;;1.00;99.90;;;;;;4966955;28;20501;-82
2023/01/28 04:04:38;;;;;;;5.47;4.38;;;1.00;99.90;;;;;;4968165;28;21201;-82
2023/01/28 04:07:07;;;;;;;6.72;4.55;;;0.90;99.90;;;;;;4970323;28;20482;-79
2023/01/28 04:09:34;;;;;;;4.70;4.00;;;0.80;99.90;;;;;;4958578;28;20411;-80
2023/01/28 04:12:01;;;;;;;4.78;3.72;;;1.20;99.90;;;;;;4969602;28;20418;-83
2023/01/28 04:14:27;;;;;;;4.88;3.78;;;1.20;99.90;;;;;;4968425;28;20594;-81
2023/01/28 04:16:55;;;;;;;5.93;4.15;;;1.20;99.90;;;;;;4969905;28;20472;-80
2023/01/28 04:19:22;;;;;;;5.70;4.10;;;1.10;99.90;;;;;;4969596;28;20406;-81
2023/01/28 04:21:48;;;;;;;5.00;3.85;;;1.30;99.90;;;;;;4968570;28;20494;-80
2023/01/28 04:24:14;;;;;;;5.40;3.90;;;1.10;99.90;;;;;;4969608;28;20414;-82
2023/01/28 04:26:40;;;;;;;5.10;4.10;;;1.70;99.90;;;;;;4968842;28;20904;-81
2023/01/28 04:29:06;;;;;;;5.45;3.95;;;1.00;99.90;;;;;;4969174;28;20399;-82
2023/01/28 04:31:34;;;;;;;4.20;3.78;;;1.30;99.90;;;;;;4967526;28;20457;-80
2023/01/28 04:34:00;;;;;;;4.18;3.75;;;0.90;99.90;;;;;;4969087;28;20877;-82
2023/01/28 04:36:26;;;;;;;5.20;4.43;;;0.90;99.90;;;;;;4969483;28;20413;-80
2023/01/28 04:38:52;;;;;;;6.37;4.57;;;1.00;99.90;;;;;;4968188;28;20391;-80
2023/01/28 04:41:17;;;;;;;6.07;4.77;;;0.40;99.90;;;;;;4971323;28;20413;-79
2023/01/28 04:43:43;;;;;;;5.47;4.17;;;0.20;99.90;;;;;;4972274;28;20469;-81
2023/01/28 04:46:09;;;;;;;5.00;4.30;;;0.60;99.90;;;;;;4971459;28;21110;-82
2023/01/28 04:48:35;;;;;;;5.83;4.30;;;1.00;99.90;;;;;;4970920;28;20434;-81
2023/01/28 04:51:02;;;;;;;6.10;4.47;;;0.80;99.90;;;;;;4965491;28;20962;-82
2023/01/28 04:53:29;;;;;;;5.47;4.00;;;0.70;99.90;;;;;;4971346;28;20386;-80
2023/01/28 04:55:55;;;;;;;5.85;4.50;;;0.70;99.90;;;;;;4968672;28;20417;-81
2023/01/28 04:58:20;;;;;;;6.53;4.60;;;0.50;99.90;;;;;;4971295;28;20406;-81
2023/01/28 05:00:46;;;;;;;5.07;4.07;;;0.90;99.90;;;;;;4972092;28;20485;-81
2023/01/28 05:03:12;;;;;;;7.10;4.57;;;1.10;99.90;;;;;;4969393;28;20399;-80
2023/01/28 05:05:37;;;;;;;5.57;4.30;;;1.10;99.90;;;;;;4972225;28;20398;-80
2023/01/28 05:08:03;;;;;;;6.40;4.23;;;1.10;99.90;;;;;;4971372;28;20484;-81
2023/01/28 05:10:29;;;;;;;7.43;4.50;;;0.90;99.90;;;;;;4972254;28;20409;-82
2023/01/28 05:12:54;;;;;;;7.53;5.30;;;0.70;99.90;;;;;;4971442;28;20670;-81
2023/01/28 05:15:20;;;;;;;5.20;4.70;;;0.90;99.90;;;;;;4972253;28;20403;-80
2023/01/28 05:17:46;;;;;;;6.10;4.50;;;0.70;99.90;;;;;;4973665;28;20382;-80
2023/01/28 05:20:13;;;;;;;7.72;5.57;;;1.00;99.90;;;;;;4969912;28;20406;-80
2023/01/28 05:22:40;;;;;;;7.72;5.63;;;1.00;99.90;;;;;;4972779;28;20417;-81
2023/01/28 05:25:07;;;;;;;5.93;5.00;;;1.10;99.90;;;;;;4970111;28;20469;-82
2023/01/28 05:27:33;;;;;;;6.55;5.65;;;1.20;99.90;;;;;;4972605;28;20418;-81
2023/01/28 05:29:59;;;;;;;6.57;5.40;;;1.10;99.90;;;;;;4970687;28;20411;-80
2023/01/28 05:32:25;;;;;;;7.50;5.83;;;1.10;99.90;;;;;;4970950;28;20496;-80
2023/01/28 05:34:50;;;;;;;8.05;6.43;;;1.20;99.90;;;;;;4968972;28;20416;-80
2023/01/28 05:37:16;;;;;;;7.68;5.90;;;1.20;99.90;;;;;;4971270;28;20917;-79
2023/01/28 05:39:42;;;;;;;6.57;5.43;;;1.00;99.90;;;;;;4969524;28;20426;-79
2023/01/28 05:42:09;;;;;;;8.60;5.20;;;1.10;99.90;;;;;;4970952;28;20414;-81
2023/01/28 05:44:36;;;;;;;5.63;5.03;;;1.00;99.90;;;;;;4971354;28;20406;-81
2023/01/28 05:47:02;;;;;;;7.80;6.07;;;0.70;99.90;;;;;;4968099;28;20420;-81
2023/01/28 05:49:28;;;;;;;6.88;5.32;;;1.00;99.90;;;;;;4968920;28;20485;-80
2023/01/28 05:51:53;;;;;;;6.50;5.23;;;1.00;99.90;;;;;;4983211;28;20494;-81
2023/01/28 05:54:19;;;;;;;7.90;5.33;;;0.90;99.90;;;;;;4971644;28;20414;-81
2023/01/28 05:56:46;;;;;;;6.43;5.50;;;1.10;99.90;;;;;;4970165;28;20402;-81
2023/01/28 05:59:12;;;;;;;7.13;5.60;;;1.10;99.90;;;;;;4970897;28;20414;-80
2023/01/28 06:01:38;;;;;;;8.13;5.35;;;0.80;99.90;;;;;;4968345;28;20770;-81
2023/01/28 06:04:04;;;;;;;6.80;5.28;;;0.80;99.90;;;;;;4984384;28;20395;-81
2023/01/28 06:06:30;;;;;;;6.97;5.67;;;0.90;99.90;;;;;;4969183;28;20486;-80
2023/01/28 06:08:55;;;;;;;6.60;5.28;;;0.80;99.90;;;;;;4970235;28;20409;-80
2023/01/28 06:11:21;;;;;;;6.47;5.27;;;1.00;99.90;;;;;;4968202;28;20422;-81
2023/01/28 06:13:47;;;;;;;5.93;4.83;;;0.90;99.90;;;;;;4971586;28;20417;-82
2023/01/28 06:16:12;;;;;;;5.07;4.27;;;1.00;99.90;;;;;;4970551;28;20394;-82
2023/01/28 06:18:40;;;;;;;6.93;4.28;;;0.80;99.90;;;;;;4969659;28;20938;-82
2023/01/28 06:21:05;;;;;;;8.32;5.55;;;1.00;99.90;;;;;;4969056;28;20410;-81
2023/01/28 06:23:31;;;;;;;8.77;5.78;;;0.80;99.90;;;;;;4971098;28;20573;-80
2023/01/28 06:25:57;;;;;;;36.30;26.63;;;0.60;99.90;;;;;;4970256;28;20480;-81
2023/01/28 06:28:23;;;;;;;56.37;40.77;;;0.70;99.90;;;;;;4971717;28;20379;-81
2023/01/28 06:30:51;;;;;;;39.78;29.38;;;1.00;99.90;;;;;;4969738;28;20920;-79
2023/01/28 06:33:17;;;;;;;29.90;20.15;;;1.00;99.90;;;;;;4970067;28;20853;-80
2023/01/28 06:35:43;;;;;;;21.25;16.35;;;1.10;99.90;;;;;;4969712;28;20410;-80
2023/01/28 06:38:09;;;;;;;21.02;16.58;;;0.80;99.90;;;;;;4970129;28;20421;-81
2023/01/28 06:40:35;;;;;;;17.92;14.00;;;1.10;99.90;;;;;;4970625;28;20410;-80
2023/01/28 06:43:01;;;;;;;7.50;6.32;;;1.30;99.90;;;;;;4968411;28;20413;-81
2023/01/28 06:45:27;;;;;;;6.20;5.00;;;1.70;99.90;;;;;;4969811;28;20399;-81
2023/01/28 06:47:53;;;;;;;6.07;4.83;;;1.40;99.90;;;;;;4970295;28;20390;-81
2023/01/28 06:50:19;;;;;;;6.55;4.60;;;1.20;99.90;;;;;;4972307;28;20378;-80
2023/01/28 06:52:44;;;;;;;5.80;4.50;;;1.20;99.90;;;;;;4971498;28;20406;-82
2023/01/28 06:55:10;;;;;;;6.15;5.53;;;1.20;99.90;;;;;;4970349;28;20781;-80
2023/01/28 06:57:39;;;;;;;8.65;6.50;;;1.20;99.90;;;;;;4970557;28;20390;-80
2023/01/28 07:00:09;;;;;;;9.13;7.13;;;1.50;99.90;;;;;;4969072;28;20394;-80
2023/01/28 07:02:35;;;;;;;9.27;7.45;;;1.30;99.90;;;;;;4970670;28;20448;-81
2023/01/28 07:05:01;;;;;;;11.73;9.15;;;1.30;99.90;;;;;;4951716;28;20396;-82
2023/01/28 07:07:27;;;;;;;5.10;3.33;;;1.50;99.90;;;;;;4952720;29;20388;-81
2023/01/28 07:09:52;;;;;;;6.68;4.38;;;1.50;99.90;;;;;;4954669;29;20392;-79
2023/01/28 07:12:18;;;;;;;6.38;5.18;;;1.80;99.90;;;;;;4952957;29;20486;-80
2023/01/28 07:14:44;;;;;;;5.40;3.60;;;1.60;99.90;;;;;;4951858;29;20479;-80
2023/01/28 07:17:09;;;;;;;5.93;4.37;;;1.50;99.90;;;;;;4951367;29;20720;-81
2023/01/28 07:19:35;;;;;;;5.80;4.47;;;1.50;99.90;;;;;;4957918;28;20485;-81
2023/01/28 07:22:02;;;;;;;6.10;5.28;;;1.50;99.90;;;;;;4969235;28;20421;-81
2023/01/28 07:24:28;;;;;;;7.28;6.03;;;1.40;99.90;;;;;;4984054;28;20418;-81
2023/01/28 07:26:54;;;;;;;8.05;6.00;;;1.30;99.90;;;;;;4969379;28;20912;-80
2023/01/28 07:29:20;;;;;;;8.73;6.30;;;1.00;99.90;;;;;;4970343;28;20402;-82
2023/01/28 07:31:45;;;;;;;7.55;5.57;;;0.90;99.90;;;;;;4966141;28;20432;-81
2023/01/28 07:34:11;;;;;;;7.67;6.30;;;0.90;99.90;;;;;;4970197;28;20537;-80
2023/01/28 07:36:37;;;;;;;8.63;5.80;;;1.00;99.90;;;;;;4968384;28;20466;-79
2023/01/28 07:39:03;;;;;;;8.35;5.47;;;1.20;99.90;;;;;;4969060;28;20477;-83
2023/01/28 07:41:29;;;;;;;5.90;5.10;;;1.30;99.90;;;;;;4970665;28;20802;-80
2023/01/28 07:43:55;;;;;;;7.23;5.30;;;1.30;99.90;;;;;;4971151;28;20513;-81
2023/01/28 07:46:21;;;;;;;7.93;6.13;;;1.50;99.90;;;;;;4970686;28;20386;-81
2023/01/28 07:48:47;;;;;;;7.07;5.40;;;1.50;99.90;;;;;;4984973;28;20389;-81
2023/01/28 07:51:12;;;;;;;6.50;5.53;;;1.40;99.90;;;;;;4970832;28;20402;-80
2023/01/28 07:53:39;;;;;;;9.70;5.97;;;1.40;99.90;;;;;;4970202;28;20387;-81
2023/01/28 07:56:05;;;;;;;7.28;5.50;;;1.70;99.90;;;;;;4969274;28;20458;-80
2023/01/28 07:58:34;;;;;;;7.70;5.53;;;1.30;99.90;;;;;;4968771;28;20421;-81
2023/01/28 08:01:00;;;;;;;10.43;7.97;;;1.70;99.90;;;;;;4971014;28;20419;-81
2023/01/28 08:03:26;;;;;;;20.63;14.10;;;1.60;99.90;;;;;;4970518;28;20374;-81
2023/01/28 08:05:54;;;;;;;18.23;12.63;;;1.60;99.90;;;;;;4970063;28;20877;-82
2023/01/28 08:08:21;;;;;;;14.00;10.63;;;1.70;99.90;;;;;;4968411;28;20413;-82
2023/01/28 08:10:47;;;;;;;20.13;14.40;;;1.70;99.90;;;;;;4967771;28;20402;-81
2023/01/28 08:13:13;;;;;;;24.67;17.47;;;1.80;99.90;;;;;;4968589;28;20387;-81
2023/01/28 08:15:40;;;;;;;30.63;21.73;;;1.80;99.90;;;;;;4968675;28;20488;-82
2023/01/28 08:18:08;;;;;;;36.50;24.98;;;1.80;99.90;;;;;;4970207;28;20366;-79
2023/01/28 08:20:33;;;;;;;21.48;15.55;;;1.60;99.90;;;;;;4969066;28;20406;-82
2023/01/28 08:23:06;;;;;;;21.40;14.75;;;1.70;99.90;;;;;;4969816;28;20410;-80
2023/01/28 08:25:33;;;;;;;20.63;14.80;;;1.50;99.90;;;;;;4969328;28;20410;-80
2023/01/28 08:27:58;;;;;;;12.55;9.57;;;1.50;99.90;;;;;;4967697;28;20481;-81
2023/01/28 08:30:24;;;;;;;16.63;12.17;;;1.60;99.90;;;;;;4969649;28;20421;-80
2023/01/28 08:32:50;;;;;;;15.77;11.53;;;1.70;99.90;;;;;;4970085;28;20461;-80
2023/01/28 08:35:15;;;;;;;17.97;12.73;;;1.90;99.90;;;;;;4970643;28;20380;-79
2023/01/28 08:37:41;;;;;;;17.48;11.63;;;2.20;99.90;;;;;;4967965;28;20482;-80
2023/01/28 08:40:08;;;;;;;15.43;10.52;;;2.20;99.90;;;;;;4969338;28;20430;-81
2023/01/28 08:42:34;;;;;;;13.43;9.00;;;2.10;99.90;;;;;;4961141;28;20420;-80
2023/01/28 08:44:59;;;;;;;11.83;8.33;;;2.30;99.90;;;;;;4969197;28;20857;-79
2023/01/28 08:47:25;;;;;;;10.95;8.23;;;2.00;99.90;;;;;;4964850;28;20402;-81
2023/01/28 08:49:51;;;;;;;11.32;8.85;;;1.90;99.90;;;;;;4969583;28;20402;-83
2023/01/28 08:52:19;;;;;;;13.75;9.45;;;2.10;99.90;;;;;;4968114;28;20425;-79
2023/01/28 08:54:44;;;;;;;13.55;9.48;;;2.30;99.90;;;;;;4967374;28;20406;-81
2023/01/28 08:57:10;;;;;;;15.68;11.45;;;2.40;99.90;;;;;;4969366;28;20435;-80
2023/01/28 08:59:39;;;;;;;19.58;12.68;;;2.50;99.90;;;;;;4969540;28;20385;-81
2023/01/28 09:02:05;;;;;;;16.52;12.20;;;2.30;99.90;;;;;;4967676;28;20489;-81
2023/01/28 09:04:31;;;;;;;16.73;11.55;;;2.30;99.90;;;;;;4966274;28;20497;-81
2023/01/28 09:06:56;;;;;;;13.33;9.83;;;2.50;99.90;;;;;;4968345;28;20853;-81
2023/01/28 09:09:22;;;;;;;14.43;9.25;;;2.70;99.90;;;;;;4969072;28;20420;-81
2023/01/28 09:11:48;;;;;;;13.05;9.95;;;2.30;99.90;;;;;;4968720;28;20418;-80
2023/01/28 09:14:13;;;;;;;13.50;9.90;;;2.50;99.90;;;;;;4968799;28;20537;-79
2023/01/28 09:16:39;;;;;;;9.87;8.37;;;2.40;99.90;;;;;;4969169;28;20393;-80
2023/01/28 09:19:04;;;;;;;11.98;8.43;;;2.80;99.90;;;;;;4969419;28;20378;-79
2023/01/28 09:21:30;;;;;;;11.55;9.00;;;2.70;99.90;;;;;;4969670;28;20881;-79
2023/01/28 09:23:57;;;;;;;9.65;8.18;;;2.70;99.90;;;;;;4967888;28;20418;-79
2023/01/28 09:26:22;;;;;;;8.97;7.47;;;2.60;99.90;;;;;;4970377;28;20462;-80
2023/01/28 09:28:49;;;;;;;8.77;6.67;;;2.50;99.90;;;;;;4972817;28;20470;-79
2023/01/28 09:31:14;;;;;;;8.33;6.40;;;2.80;99.90;;;;;;4972635;28;20909;-79
2023/01/28 09:33:40;;;;;;;6.97;5.33;;;2.90;99.90;;;;;;4973831;28;20438;-80
2023/01/28 09:36:09;;;;;;;6.93;5.40;;;2.90;99.90;;;;;;4972255;28;20386;-78
2023/01/28 09:38:35;;;;;;;6.18;4.65;;;2.80;99.90;;;;;;4972330;28;20403;-79
2023/01/28 09:41:08;;;;;;;5.55;4.50;;;3.00;99.90;;;;;;4968680;28;20495;-80
2023/01/28 09:43:39;;;;;;;7.20;4.20;;;3.10;99.90;;;;;;4969530;28;20390;-79
2023/01/28 09:46:09;;;;;;;5.07;3.75;;;3.10;99.90;;;;;;4972491;28;20390;-81
2023/01/28 09:48:41;;;;;;;4.17;3.53;;;3.40;99.90;;;;;;4970785;28;20415;-81
2023/01/28 09:51:17;;;;;;;4.60;2.95;;;3.20;99.90;;;;;;4968841;28;20759;-79
2023/01/28 09:53:48;;;;;;;3.65;2.67;;;3.20;99.90;;;;;;4968807;28;20399;-80
2023/01/28 09:56:40;;;;;;;4.80;2.97;;;3.40;99.90;;;;;;4963322;28;20919;-80
2023/01/28 09:59:19;;;;;;;3.67;3.10;;;3.50;99.90;;;;;;4971222;28;20877;-81
2023/01/28 10:01:53;;;;;;;3.00;2.70;;;3.40;99.90;;;;;;4970547;28;20401;-80
2023/01/28 10:04:53;;;;;;;3.08;2.35;;;3.50;99.90;;;;;;4973653;28;20387;-80
2023/01/28 10:07:37;;;;;;;3.72;2.10;;;3.60;99.90;;;;;;4972154;28;20390;-82
2023/01/28 10:10:14;;;;;;;4.97;2.58;;;3.70;99.90;;;;;;4963107;28;20405;-82
2023/01/28 10:13:19;;;;;;;3.80;2.28;;;3.70;99.90;;;;;;4964627;28;20466;-82
2023/01/28 10:16:25;;;;;;;3.60;2.30;;;3.60;99.90;;;;;;4915748;29;20528;-81
2023/01/28 10:18:57;;;;;;;3.67;2.08;;;3.60;99.90;;;;;;4974619;28;20656;-83
2023/01/28 10:21:52;;;;;;;2.15;1.40;;;3.80;99.90;;;;;;4962620;28;20489;-82
2023/01/28 10:24:37;;;;;;;2.65;1.60;;;3.60;99.90;;;;;;4974394;28;20401;-82
2023/01/28 10:27:20;;;;;;;3.83;2.80;;;3.60;99.90;;;;;;4968990;28;20487;-82
2023/01/28 10:29:49;;;;;;;2.90;1.80;;;3.50;99.90;;;;;;4977533;28;20541;-82
2023/01/28 10:32:37;;;;;;;5.03;2.55;;;3.30;99.90;;;;;;4989302;28;20481;-82
2023/01/28 10:35:03;;;;;;;8.32;5.95;;;3.30;99.90;;;;;;4988199;28;20378;-83
2023/01/28 10:37:36;;;;;;;6.32;4.30;;;3.10;99.90;;;;;;4972883;28;20470;-82
2023/01/28 10:40:04;;;;;;;3.77;3.13;;;3.00;99.90;;;;;;4971842;28;20529;-80
2023/01/28 10:42:33;;;;;;;4.15;3.28;;;3.00;99.90;;;;;;4974481;28;20889;-83
2023/01/28 10:45:06;;;;;;;3.35;1.48;;;3.20;99.90;;;;;;4973263;28;20402;-82
2023/01/28 10:47:43;;;;;;;3.08;1.98;;;3.30;99.90;;;;;;4971591;28;20399;-82
2023/01/28 10:50:25;;;;;;;2.08;1.73;;;3.40;99.90;;;;;;4974823;28;20379;-81
2023/01/28 10:53:01;;;;;;;2.13;0.90;;;3.20;99.90;;;;;;4973407;28;20973;-82
2023/01/28 10:55:35;;;;;;;1.63;1.10;;;3.20;99.90;;;;;;4973103;28;20875;-82
2023/01/28 10:58:03;;;;;;;1.52;0.90;;;3.30;99.90;;;;;;4976323;28;20430;-82
2023/01/28 11:00:36;;;;;;;2.45;1.13;;;3.20;99.90;;;;;;4974224;28;20418;-82
2023/01/28 11:03:02;;;;;;;2.20;1.10;;;3.00;99.90;;;;;;4970889;28;20453;-82
2023/01/28 11:05:29;;;;;;;1.90;1.48;;;2.80;99.90;;;;;;4973720;28;20498;-81
2023/01/28 11:08:16;;;;;;;1.27;1.17;;;2.80;99.90;;;;;;4976993;28;20496;-81
2023/01/28 11:10:43;;;;;;;1.90;1.20;;;2.90;99.90;;;;;;4973878;28;20430;-83
2023/01/28 11:13:24;;;;;;;13.63;9.18;;;3.10;99.90;;;;;;4972401;28;20411;-82
2023/01/28 11:15:54;;;;;;;6.05;4.22;;;3.00;99.90;;;;;;4969719;28;20413;-82
2023/01/28 11:18:23;;;;;;;2.17;1.63;;;3.10;99.90;;;;;;4970997;28;20865;-79
2023/01/28 11:21:01;;;;;;;3.15;2.00;;;3.20;99.90;;;;;;4968912;28;20398;-83
2023/01/28 11:23:34;;;;;;;2.40;1.38;;;3.20;99.90;;;;;;4971879;28;20421;-81
2023/01/28 11:26:17;;;;;;;2.25;1.30;;;3.30;99.90;;;;;;4971537;28;20936;-81
2023/01/28 11:28:44;;;;;;;2.42;1.48;;;3.10;99.90;;;;;;4973329;28;20391;-82
2023/01/28 11:31:13;;;;;;;2.60;1.60;;;3.20;99.90;;;;;;4970788;28;20394;-81
2023/01/28 11:33:43;;;;;;;2.05;1.40;;;3.20;99.90;;;;;;4972847;28;20734;-80
2023/01/28 11:36:17;;;;;;;2.70;1.50;;;3.20;99.90;;;;;;4972162;28;20556;-80
2023/01/28 11:38:54;;;;;;;1.83;1.50;;;3.20;99.90;;;;;;4970518;28;20390;-80
2023/01/28 11:41:35;;;;;;;3.53;1.90;;;3.20;99.90;;;;;;4971179;28;20462;-80
2023/01/28 11:44:15;;;;;;;4.20;1.75;;;3.20;99.90;;;;;;4971594;28;20391;-80
2023/01/28 11:46:47;;;;;;;3.47;1.90;;;3.20;99.90;;;;;;4971308;28;20394;-80
2023/01/28 11:49:27;;;;;;;2.20;1.90;;;3.30;99.90;;;;;;4969814;28;20898;-79
2023/01/28 11:52:17;;;;;;;2.53;1.83;;;3.10;99.90;;;;;;4971849;28;20505;-80
2023/01/28 11:54:53;;;;;;;3.75;2.60;;;3.20;99.90;;;;;;4971803;28;20926;-81
2023/01/28 11:57:26;;;;;;;2.78;2.30;;;3.20;99.90;;;;;;4986615;28;20442;-81
2023/01/28 12:00:10;;;;;;;5.57;2.92;;;3.20;99.90;;;;;;4971262;28;20578;-80
2023/01/28 12:02:51;;;;;;;3.63;2.50;;;3.30;99.90;;;;;;4971399;28;20750;-80
2023/01/28 12:05:48;;;;;;;3.95;2.05;;;3.20;99.90;;;;;;4971158;28;20402;-81
2023/01/28 12:08:41;;;;;;;2.22;1.60;;;3.10;99.90;;;;;;4970497;28;20379;-81
2023/01/28 12:11:09;;;;;;;3.58;1.58;;;3.20;99.90;;;;;;4967813;28;20410;-82
2023/01/28 12:14:31;;;;;;;1.30;1.20;;;3.20;99.90;;;;;;4971396;28;20406;-81
2023/01/28 12:17:34;;;;;;;1.33;1.23;;;3.30;99.90;;;;;;4900940;29;20398;-80
2023/01/28 12:20:30;;;;;;;2.30;1.20;;;3.30;99.90;;;;;;4876736;29;20460;-80
2023/01/28 12:23:13;;;;;;;2.58;1.48;;;3.20;99.90;;;;;;4943408;28;20435;-80
2023/01/28 12:26:01;;;;;;;2.10;1.10;;;3.20;99.90;;;;;;4957727;28;20733;-81
2023/01/28 12:28:48;;;;;;;1.88;1.10;;;3.20;99.90;;;;;;4984263;28;20403;-81
2023/01/28 12:31:38;;;;;;;1.92;1.10;;;3.10;99.90;;;;;;4969802;28;20391;-81
2023/01/28 12:34:28;;;;;;;2.40;1.23;;;2.90;99.90;;;;;;4970941;28;20387;-82
2023/01/28 12:36:56;;;;;;;1.83;1.08;;;3.10;99.90;;;;;;4970597;28;20378;-82
2023/01/28 12:39:33;;;;;;;2.33;1.40;;;3.00;99.90;;;;;;4968840;28;20454;-81
2023/01/28 12:42:12;;;;;;;1.37;1.10;;;3.10;99.90;;;;;;4970314;28;20402;-81
2023/01/28 12:45:01;;;;;;;1.90;1.30;;;3.20;99.90;;;;;;4972627;28;20474;-81
2023/01/28 12:47:38;;;;;;;2.72;1.10;;;3.40;99.90;;;;;;4959425;28;20391;-81
2023/01/28 12:50:25;;;;;;;2.00;1.15;;;3.20;99.90;;;;;;4972110;28;20824;-81
2023/01/28 12:52:58;;;;;;;2.85;1.17;;;3.20;99.90;;;;;;4969772;28;20422;-81
2023/01/28 12:55:38;;;;;;;1.75;1.10;;;3.00;99.90;;;;;;4972463;28;20387;-80
2023/01/28 12:58:10;;;;;;;2.45;1.17;;;2.80;99.90;;;;;;4971802;28;20395;-80
2023/01/28 13:00:40;;;;;;;1.13;1.00;;;2.80;99.90;;;;;;4974045;28;20393;-81
2023/01/28 13:03:33;;;;;;;2.55;1.85;;;3.00;99.90;;;;;;4960968;28;20378;-81
2023/01/28 13:06:05;;;;;;;2.17;1.60;;;2.80;99.90;;;;;;4978743;28;20398;-79
2023/01/28 13:08:31;;;;;;;5.20;4.68;;;2.90;99.90;;;;;;4977010;28;20458;-81
2023/01/28 13:11:00;;;;;;;1.80;1.40;;;3.20;99.90;;;;;;4975981;28;20382;-81
2023/01/28 13:13:29;;;;;;;2.08;1.27;;;2.90;99.90;;;;;;4984207;28;20382;-79
2023/01/28 13:15:55;;;;;;;1.70;1.10;;;3.00;99.90;;;;;;4995120;28;20379;-81
2023/01/28 13:18:47;;;;;;;1.95;1.33;;;3.40;99.90;;;;;;4984937;28;20406;-81
2023/01/28 13:21:28;;;;;;;2.85;1.30;;;3.10;99.90;;;;;;4971060;28;20725;-82
2023/01/28 13:24:08;;;;;;;1.38;1.13;;;2.90;99.90;;;;;;4975093;28;20413;-81
2023/01/28 13:26:53;;;;;;;2.30;1.20;;;2.90;99.90;;;;;;4974005;28;20398;-80
2023/01/28 13:29:24;;;;;;;3.05;1.42;;;3.00;99.90;;;;;;4976001;28;20426;-81
2023/01/28 13:31:52;;;;;;;1.77;1.10;;;3.00;99.90;;;;;;4974529;28;20449;-81
2023/01/28 13:34:32;;;;;;;1.63;1.10;;;3.40;99.90;;;;;;4976087;28;20708;-80
2023/01/28 13:37:23;;;;;;;2.58;1.10;;;3.20;99.90;;;;;;4990319;28;20412;-79
2023/01/28 13:40:00;;;;;;;1.65;1.20;;;3.20;99.90;;;;;;4975944;28;20422;-81
2023/01/28 13:42:29;;;;;;;3.13;1.42;;;2.90;99.90;;;;;;4977681;28;20409;-80
2023/01/28 13:45:12;;;;;;;2.70;1.80;;;2.90;99.90;;;;;;4977932;28;20393;-80